createdAt,value
2018-10-01T00:01:52.956Z,53.04
2018-10-01T00:06:56.617Z,53.58
2018-10-01T00:12:00.627Z,53.34
2018-10-01T00:17:04.182Z,53.03
2018-10-01T00:22:13.071Z,52.99
2018-10-01T00:27:16.707Z,53.31
2018-10-01T00:32:20.173Z,53.47
2018-10-01T00:37:23.796Z,53.18
2018-10-01T00:42:27.309Z,53.52
2018-10-01T00:47:30.901Z,53.75
2018-10-01T00:52:34.503Z,53.73
2018-10-01T00:57:37.942Z,53.80
2018-10-01T01:02:41.397Z,53.46
2018-10-01T01:07:44.877Z,53.80
2018-10-01T01:12:48.362Z,53.95
2018-10-01T01:17:51.842Z,54.29
2018-10-01T01:22:55.322Z,54.52
2018-10-01T01:27:58.841Z,55.13
2018-10-01T01:33:02.352Z,55.73
2018-10-01T01:38:05.918Z,55.84
2018-10-01T01:43:09.409Z,56.24
2018-10-01T01:48:12.977Z,56.43
2018-10-01T01:53:16.549Z,56.67
2018-10-01T01:58:20.015Z,56.97
2018-10-01T02:03:23.537Z,57.12
2018-10-01T02:08:27.269Z,57.04
2018-10-01T02:13:30.759Z,57.40
2018-10-01T02:18:34.306Z,57.51
2018-10-01T02:23:37.821Z,57.68
2018-10-01T02:28:41.290Z,58.22
2018-10-01T02:33:44.843Z,58.54
2018-10-01T02:38:48.304Z,58.09
2018-10-01T02:43:51.813Z,58.54
2018-10-01T02:48:55.362Z,58.70
2018-10-01T02:54:04.146Z,58.46
2018-10-01T02:59:07.637Z,58.82
2018-10-01T03:04:11.084Z,58.92
2018-10-01T03:09:15.210Z,58.86
2018-10-01T03:14:18.653Z,58.46
2018-10-01T03:19:22.143Z,59.11
2018-10-01T03:24:25.671Z,58.83
2018-10-01T03:29:29.171Z,58.89
2018-10-01T03:34:32.672Z,59.69
2018-10-01T03:39:36.150Z,59.44
2018-10-01T03:44:39.652Z,59.55
2018-10-01T03:49:43.157Z,59.81
2018-10-01T03:54:46.651Z,59.11
2018-10-01T03:59:50.117Z,59.13
2018-10-01T04:04:53.623Z,58.32
2018-10-01T04:09:57.109Z,58.66
2018-10-01T04:15:00.588Z,57.88
2018-10-01T04:20:04.697Z,57.65
2018-10-01T04:25:09.644Z,57.69
2018-10-01T04:30:13.169Z,57.46
2018-10-01T04:35:16.732Z,57.79
2018-10-01T04:40:20.200Z,56.93
2018-10-01T04:45:23.711Z,57.58
2018-10-01T04:50:27.197Z,56.97
2018-10-01T04:55:30.662Z,57.29
2018-10-01T05:00:34.640Z,56.98
2018-10-01T05:05:38.091Z,57.42
2018-10-01T05:10:41.542Z,57.28
2018-10-01T05:15:45.013Z,56.88
2018-10-01T05:20:48.457Z,56.88
2018-10-01T05:25:51.922Z,57.27
2018-10-01T05:30:55.356Z,57.04
2018-10-01T05:35:58.796Z,57.08
2018-10-01T05:41:02.257Z,57.14
2018-10-01T05:46:05.697Z,56.88
2018-10-01T05:51:09.122Z,57.45
2018-10-01T05:56:12.529Z,56.73
2018-10-01T06:01:15.989Z,57.19
2018-10-01T06:06:19.416Z,57.20
2018-10-01T06:11:22.866Z,57.07
2018-10-01T06:16:26.291Z,57.28
2018-10-01T06:21:29.730Z,46.25
2018-10-01T06:26:33.194Z,46.76
2018-10-01T06:31:36.682Z,48.32
2018-10-01T06:36:40.147Z,49.05
2018-10-01T06:41:43.672Z,50.60
2018-10-01T06:46:47.065Z,50.29
2018-10-01T06:51:50.505Z,51.82
2018-10-01T06:56:53.965Z,52.51
2018-10-01T07:01:57.425Z,53.05
2018-10-01T07:07:00.881Z,54.06
2018-10-01T07:12:04.336Z,52.97
2018-10-01T07:17:07.875Z,53.32
2018-10-01T07:22:11.341Z,53.29
2018-10-01T07:27:14.840Z,53.54
2018-10-01T07:32:18.341Z,53.18
2018-10-01T07:37:21.854Z,52.26
2018-10-01T07:42:25.446Z,52.35
2018-10-01T07:47:28.925Z,52.12
2018-10-01T07:52:32.364Z,52.41
2018-10-01T07:57:35.957Z,51.81
2018-10-01T08:02:39.598Z,51.63
2018-10-01T08:07:43.009Z,51.17
2018-10-01T08:12:46.448Z,51.49
2018-10-01T08:17:49.934Z,51.75
2018-10-01T08:22:53.453Z,51.86
2018-10-01T08:27:56.990Z,51.78
2018-10-01T08:33:00.497Z,51.90
2018-10-01T08:38:04.241Z,51.72
2018-10-01T08:43:07.785Z,51.74
2018-10-01T08:48:12.190Z,51.85
2018-10-01T08:53:24.610Z,51.97
2018-10-01T08:58:28.173Z,52.06
2018-10-01T09:03:31.678Z,51.95
2018-10-01T09:08:35.293Z,52.20
2018-10-01T09:13:38.723Z,52.22
2018-10-01T09:18:42.268Z,52.16
2018-10-01T09:23:45.740Z,52.23
2018-10-01T09:28:49.504Z,52.29
2018-10-01T09:33:52.985Z,52.33
2018-10-01T09:38:56.494Z,52.48
2018-10-01T09:43:59.978Z,52.91
2018-10-01T09:49:03.515Z,53.39
2018-10-01T09:54:07.063Z,53.03
2018-10-01T09:59:10.522Z,52.76
2018-10-01T10:04:14.027Z,53.18
2018-10-01T10:09:17.425Z,53.45
2018-10-01T10:14:21.018Z,57.04
2018-10-01T10:19:24.490Z,59.15
2018-10-01T10:24:28.129Z,60.81
2018-10-01T10:29:31.612Z,61.57
2018-10-01T10:34:35.150Z,62.61
2018-10-01T10:39:38.557Z,61.34
2018-10-01T10:44:41.979Z,55.96
2018-10-01T10:49:45.394Z,53.91
2018-10-01T10:54:48.800Z,53.13
2018-10-01T10:59:52.294Z,52.92
2018-10-01T11:04:55.718Z,52.53
2018-10-01T11:09:59.226Z,52.28
2018-10-01T11:15:03.195Z,52.69
2018-10-01T11:20:06.626Z,52.20
2018-10-01T11:25:10.043Z,52.33
2018-10-01T11:30:13.489Z,52.10
2018-10-01T11:35:17.118Z,52.53
2018-10-01T11:40:20.353Z,52.31
2018-10-01T11:45:23.857Z,52.58
2018-10-01T11:50:27.280Z,52.85
2018-10-01T11:55:30.698Z,52.79
2018-10-01T12:00:34.146Z,52.49
2018-10-01T12:05:37.583Z,52.78
2018-10-01T12:10:41.059Z,52.89
2018-10-01T12:15:44.600Z,53.21
2018-10-01T12:20:47.937Z,53.11
2018-10-01T12:25:51.369Z,53.39
2018-10-01T12:30:54.794Z,52.89
2018-10-01T12:35:58.235Z,53.08
2018-10-01T12:41:01.667Z,53.16
2018-10-01T12:46:05.093Z,53.45
2018-10-01T12:51:08.604Z,53.58
2018-10-01T12:56:11.949Z,53.58
2018-10-01T13:01:15.425Z,53.34
2018-10-01T13:06:19.014Z,53.28
2018-10-01T13:11:22.385Z,54.01
2018-10-01T13:16:25.856Z,53.64
2018-10-01T13:21:29.328Z,54.21
2018-10-01T13:26:32.843Z,54.32
2018-10-01T13:31:36.331Z,55.03
2018-10-01T13:36:39.853Z,54.83
2018-10-01T13:41:43.317Z,55.62
2018-10-01T13:46:46.760Z,55.36
2018-10-01T13:51:50.258Z,55.38
2018-10-01T13:56:53.763Z,54.94
2018-10-01T14:01:57.225Z,55.22
2018-10-01T14:07:00.673Z,55.45
2018-10-01T14:12:04.112Z,55.42
2018-10-01T14:17:08.000Z,54.86
2018-10-01T14:22:11.469Z,55.00
2018-10-01T14:27:14.956Z,54.43
2018-10-01T14:32:18.389Z,54.42
2018-10-01T14:37:21.801Z,54.17
2018-10-01T14:42:25.443Z,53.59
2018-10-01T14:47:28.870Z,53.42
2018-10-01T14:52:32.331Z,53.74
2018-10-01T14:57:35.752Z,53.55
2018-10-01T15:02:39.217Z,53.14
2018-10-01T15:07:42.653Z,53.05
2018-10-01T15:12:46.232Z,53.12
2018-10-01T15:17:49.675Z,53.35
2018-10-01T15:22:53.249Z,53.24
2018-10-01T15:27:56.756Z,52.66
2018-10-01T15:33:00.196Z,53.14
2018-10-01T15:38:03.654Z,52.62
2018-10-01T15:43:07.195Z,52.50
2018-10-01T15:48:10.693Z,52.92
2018-10-01T15:53:14.128Z,52.53
2018-10-01T15:58:17.604Z,53.62
2018-10-01T16:03:21.143Z,54.09
2018-10-01T16:08:24.606Z,55.07
2018-10-01T16:13:28.163Z,55.19
2018-10-01T16:18:31.592Z,54.75
2018-10-01T16:23:35.059Z,55.41
2018-10-01T16:28:38.532Z,55.84
2018-10-01T16:33:42.029Z,55.74
2018-10-01T16:38:45.616Z,55.59
2018-10-01T16:43:49.059Z,55.47
2018-10-01T16:48:53.220Z,55.32
2018-10-01T16:53:56.792Z,54.49
2018-10-01T16:59:00.317Z,54.44
2018-10-01T17:04:03.867Z,54.22
2018-10-01T17:09:08.683Z,53.85
2018-10-01T17:14:12.167Z,53.98
2018-10-01T17:19:15.641Z,53.72
2018-10-01T17:24:19.290Z,53.81
2018-10-01T17:29:22.752Z,53.19
2018-10-01T17:34:26.425Z,53.10
2018-10-01T17:39:29.869Z,53.34
2018-10-01T17:44:33.317Z,53.18
2018-10-01T17:49:36.883Z,53.30
2018-10-01T17:54:40.338Z,52.82
2018-10-01T17:59:44.104Z,52.83
2018-10-01T18:04:47.705Z,53.09
2018-10-01T18:09:51.296Z,52.65
2018-10-01T18:14:54.801Z,52.60
2018-10-01T18:19:58.415Z,53.13
2018-10-01T18:25:01.978Z,53.24
2018-10-01T18:30:06.838Z,53.30
2018-10-01T18:35:10.272Z,52.83
2018-10-01T18:40:14.874Z,52.76
2018-10-01T18:45:18.561Z,52.37
2018-10-01T18:50:22.093Z,52.46
2018-10-01T18:55:25.628Z,52.13
2018-10-01T19:00:29.050Z,52.45
2018-10-01T19:05:32.496Z,52.92
2018-10-01T19:10:36.043Z,52.45
2018-10-01T19:15:39.505Z,52.70
2018-10-01T19:20:42.988Z,52.71
2018-10-01T19:25:46.433Z,52.58
2018-10-01T19:30:49.878Z,52.06
2018-10-01T19:35:53.528Z,52.27
2018-10-01T19:40:57.115Z,51.99
2018-10-01T19:46:00.564Z,52.36
2018-10-01T19:51:04.020Z,52.53
2018-10-01T19:56:07.709Z,52.30
2018-10-01T20:01:11.149Z,52.01
2018-10-01T20:06:14.574Z,52.05
2018-10-01T20:11:18.054Z,51.93
2018-10-01T20:16:21.453Z,52.30
2018-10-01T20:21:25.198Z,52.44
2018-10-01T20:26:28.711Z,52.70
2018-10-01T20:31:32.087Z,52.88
2018-10-01T20:36:35.575Z,52.68
2018-10-01T20:41:39.044Z,52.83
2018-10-01T20:46:42.591Z,53.14
2018-10-01T20:51:45.997Z,53.16
2018-10-01T20:56:49.417Z,52.72
2018-10-01T21:01:52.882Z,52.54
2018-10-01T21:06:56.310Z,53.23
2018-10-01T21:11:59.768Z,52.60
2018-10-01T21:17:03.212Z,53.14
2018-10-01T21:22:06.766Z,53.21
2018-10-01T21:27:10.202Z,53.33
2018-10-01T21:32:13.645Z,53.06
2018-10-01T21:37:17.060Z,53.50
2018-10-01T21:42:20.595Z,53.00
2018-10-01T21:47:24.177Z,53.28
2018-10-01T21:52:28.091Z,53.09
2018-10-01T21:57:31.554Z,53.32
2018-10-01T22:02:35.060Z,53.31
2018-10-01T22:07:38.544Z,53.13
2018-10-01T22:12:42.022Z,53.41
2018-10-01T22:17:45.569Z,53.10
2018-10-01T22:22:49.025Z,53.14
2018-10-01T22:27:52.495Z,53.12
2018-10-01T22:32:55.933Z,53.11
2018-10-01T22:37:59.421Z,53.25
2018-10-01T22:43:02.906Z,53.37
2018-10-01T22:48:06.516Z,53.47
2018-10-01T22:53:09.994Z,53.17
2018-10-01T22:58:13.494Z,53.13
2018-10-01T23:03:16.965Z,53.43
2018-10-01T23:08:20.412Z,53.20
2018-10-01T23:13:23.889Z,53.42
2018-10-01T23:18:27.341Z,53.04
2018-10-01T23:23:30.904Z,53.33
2018-10-01T23:28:34.382Z,53.65
2018-10-01T23:33:37.867Z,53.71
2018-10-01T23:38:41.358Z,53.30
2018-10-01T23:43:44.805Z,53.60
2018-10-01T23:48:48.288Z,53.30
2018-10-01T23:53:51.745Z,53.48
2018-10-01T23:58:55.220Z,53.33
